createdAt,value
2019-04-27T00:02:24.797Z,7.70
2019-04-27T00:05:04.399Z,7.70
2019-04-27T00:07:51.405Z,7.80
2019-04-27T00:10:37.030Z,7.80
2019-04-27T00:13:08.498Z,7.70
2019-04-27T00:16:05.644Z,7.70
2019-04-27T00:18:58.212Z,7.70
2019-04-27T00:21:50.147Z,7.70
2019-04-27T00:24:20.730Z,7.70
2019-04-27T00:26:51.582Z,7.70
2019-04-27T00:29:23.593Z,7.70
2019-04-27T00:31:55.753Z,7.70
2019-04-27T00:34:26.842Z,7.70
2019-04-27T00:37:09.614Z,7.70
2019-04-27T00:39:49.748Z,7.70
2019-04-27T00:42:20.563Z,7.60
2019-04-27T00:44:51.157Z,7.50
2019-04-27T00:47:23.815Z,7.50
2019-04-27T00:49:55.045Z,7.40
2019-04-27T00:52:25.700Z,7.40
2019-04-27T00:54:57.576Z,7.40
2019-04-27T00:57:39.329Z,7.30
2019-04-27T01:00:36.608Z,7.40
2019-04-27T01:03:10.603Z,7.30
2019-04-27T01:05:42.695Z,7.30
2019-04-27T01:08:13.971Z,7.30
2019-04-27T01:10:44.787Z,7.30
2019-04-27T01:13:15.625Z,7.30
2019-04-27T01:15:46.254Z,7.30
2019-04-27T01:18:16.916Z,7.30
2019-04-27T01:20:48.894Z,7.40
2019-04-27T01:23:19.896Z,7.40
2019-04-27T01:26:25.372Z,7.40
2019-04-27T01:29:01.139Z,7.40
2019-04-27T01:31:33.239Z,7.50
2019-04-27T01:34:04.017Z,7.50
2019-04-27T01:36:35.111Z,7.50
2019-04-27T01:39:11.588Z,7.50
2019-04-27T01:41:42.436Z,7.50
2019-04-27T01:44:13.071Z,7.60
2019-04-27T01:46:43.976Z,7.60
2019-04-27T01:49:14.858Z,7.50
2019-04-27T01:51:45.750Z,7.50
2019-04-27T01:54:19.381Z,7.40
2019-04-27T01:56:50.384Z,7.50
2019-04-27T01:59:20.970Z,7.40
2019-04-27T02:02:19.223Z,7.40
2019-04-27T02:05:08.949Z,7.40
2019-04-27T02:07:41.327Z,7.30
2019-04-27T02:10:13.672Z,7.30
2019-04-27T02:12:44.554Z,7.30
2019-04-27T02:15:15.203Z,7.20
2019-04-27T02:17:46.103Z,7.20
2019-04-27T02:20:17.053Z,7.10
2019-04-27T02:22:48.553Z,7.10
2019-04-27T02:25:21.117Z,6.90
2019-04-27T02:27:56.982Z,6.90
2019-04-27T02:30:45.378Z,6.90
2019-04-27T02:33:33.271Z,6.80
2019-04-27T02:36:03.901Z,6.70
2019-04-27T02:38:35.118Z,6.80
2019-04-27T02:41:06.397Z,6.80
2019-04-27T02:44:01.358Z,6.70
2019-04-27T02:46:31.555Z,6.70
2019-04-27T02:49:06.286Z,6.70
2019-04-27T02:51:44.360Z,6.60
2019-04-27T02:54:15.012Z,6.50
2019-04-27T02:56:45.650Z,6.40
2019-04-27T02:59:16.271Z,6.40
2019-04-27T03:01:56.380Z,6.40
2019-04-27T03:04:26.969Z,6.30
2019-04-27T03:07:00.098Z,6.30
2019-04-27T03:09:30.631Z,6.20
2019-04-27T03:12:03.171Z,6.30
2019-04-27T03:14:55.886Z,6.20
2019-04-27T03:17:32.084Z,6.20
2019-04-27T03:20:10.873Z,6.20
2019-04-27T03:22:44.301Z,6.10
2019-04-27T03:25:25.593Z,6.10
2019-04-27T03:28:00.285Z,6.10
2019-04-27T03:30:36.170Z,6.10
2019-04-27T03:33:05.329Z,6.10
2019-04-27T03:35:37.233Z,6.10
2019-04-27T03:38:12.103Z,6.00
2019-04-27T03:40:41.237Z,6.00
2019-04-27T03:43:20.128Z,5.90
2019-04-27T03:45:52.454Z,5.90
2019-04-27T03:48:23.559Z,5.80
2019-04-27T03:51:20.043Z,5.80
2019-04-27T03:54:05.639Z,5.70
2019-04-27T03:56:42.790Z,5.70
2019-04-27T03:59:40.533Z,5.60
2019-04-27T04:02:10.690Z,5.70
2019-04-27T04:04:41.477Z,5.60
2019-04-27T04:07:16.517Z,5.60
2019-04-27T04:09:50.076Z,5.60
2019-04-27T04:12:30.217Z,5.50
2019-04-27T04:15:01.112Z,5.50
2019-04-27T04:17:33.355Z,5.40
2019-04-27T04:20:04.514Z,5.40
2019-04-27T04:22:35.126Z,5.40
2019-04-27T04:25:06.424Z,5.30
2019-04-27T04:27:37.067Z,5.40
2019-04-27T04:30:09.748Z,5.40
2019-04-27T04:32:41.298Z,5.40
2019-04-27T04:35:22.969Z,5.40
2019-04-27T04:37:53.656Z,5.30
2019-04-27T04:40:31.550Z,5.30
2019-04-27T04:43:11.115Z,5.40
2019-04-27T04:45:50.266Z,5.40
2019-04-27T04:48:21.275Z,5.40
2019-04-27T04:50:52.056Z,5.40
2019-04-27T04:53:22.633Z,5.40
2019-04-27T04:55:53.205Z,5.40
2019-04-27T04:58:24.120Z,5.40
2019-04-27T05:00:55.041Z,5.30
2019-04-27T05:03:25.633Z,5.30
2019-04-27T05:05:56.262Z,5.40
2019-04-27T05:08:26.897Z,5.50
2019-04-27T05:10:59.511Z,5.60
2019-04-27T05:13:29.756Z,5.80
2019-04-27T05:16:00.403Z,5.90
2019-04-27T05:18:31.183Z,6.10
2019-04-27T05:21:08.683Z,6.20
2019-04-27T05:23:39.539Z,6.20
2019-04-27T05:26:10.383Z,6.30
2019-04-27T05:28:41.236Z,6.40
2019-04-27T05:31:12.182Z,6.40
2019-04-27T05:33:43.311Z,6.60
2019-04-27T05:36:14.176Z,6.60
2019-04-27T05:38:46.046Z,6.80
2019-04-27T05:41:18.743Z,6.90
2019-04-27T05:44:10.729Z,7.00
2019-04-27T05:46:58.782Z,7.00
2019-04-27T05:49:51.392Z,7.30
2019-04-27T05:52:31.643Z,7.50
2019-04-27T05:55:02.297Z,7.80
2019-04-27T05:57:33.566Z,7.90
2019-04-27T06:00:04.973Z,7.90
2019-04-27T06:02:35.579Z,8.40
2019-04-27T06:05:08.819Z,8.60
2019-04-27T06:07:39.743Z,8.90
2019-04-27T06:10:13.132Z,9.40
2019-04-27T06:12:43.683Z,9.70
2019-04-27T06:15:14.515Z,9.90
2019-04-27T06:17:45.522Z,10.00
2019-04-27T06:20:16.447Z,10.30
2019-04-27T06:22:48.937Z,10.50
2019-04-27T06:25:21.651Z,10.80
2019-04-27T06:27:51.992Z,11.40
2019-04-27T06:30:22.605Z,11.90
2019-04-27T06:32:53.317Z,12.30
2019-04-27T06:35:23.953Z,12.70
2019-04-27T06:37:54.557Z,12.80
2019-04-27T06:40:25.349Z,12.10
2019-04-27T06:42:55.941Z,13.20
2019-04-27T06:45:26.544Z,11.90
2019-04-27T06:47:59.429Z,12.10
2019-04-27T06:50:30.050Z,12.00
2019-04-27T06:53:00.675Z,13.00
2019-04-27T06:55:31.464Z,13.70
2019-04-27T06:58:02.504Z,14.70
2019-04-27T07:00:33.753Z,14.60
2019-04-27T07:03:04.465Z,15.00
2019-04-27T07:05:35.593Z,14.50
2019-04-27T07:08:06.278Z,15.20
2019-04-27T07:10:36.853Z,15.60
2019-04-27T07:13:09.414Z,15.90
2019-04-27T07:15:40.611Z,15.50
2019-04-27T07:18:15.185Z,16.40
2019-04-27T07:20:46.036Z,16.20
2019-04-27T07:23:16.827Z,16.30
2019-04-27T07:25:48.796Z,16.40
2019-04-27T07:28:19.796Z,16.00
2019-04-27T07:30:50.627Z,16.60
2019-04-27T07:33:21.492Z,17.30
2019-04-27T07:35:52.362Z,17.00
2019-04-27T07:38:22.993Z,16.90
2019-04-27T07:40:53.694Z,15.90
2019-04-27T07:43:33.425Z,16.30
2019-04-27T07:46:05.416Z,16.50
2019-04-27T07:48:36.070Z,16.70
2019-04-27T07:51:08.944Z,17.00
2019-04-27T07:53:39.860Z,16.70
2019-04-27T07:56:10.892Z,16.40
2019-04-27T07:58:41.803Z,15.90
2019-04-27T08:01:13.142Z,15.20
2019-04-27T08:03:43.935Z,15.00
2019-04-27T08:06:14.717Z,15.10
2019-04-27T08:08:45.839Z,15.30
2019-04-27T08:11:16.818Z,15.40
2019-04-27T08:13:49.054Z,15.60
2019-04-27T08:16:20.726Z,16.60
2019-04-27T08:18:52.226Z,17.20
2019-04-27T08:21:22.850Z,17.20
2019-04-27T08:23:53.484Z,17.70
2019-04-27T08:26:33.388Z,17.60
2019-04-27T08:29:20.792Z,17.30
2019-04-27T08:31:56.486Z,16.70
2019-04-27T08:34:33.690Z,17.20
2019-04-27T08:37:05.441Z,16.90
2019-04-27T08:39:36.033Z,16.30
2019-04-27T08:42:09.608Z,16.40
2019-04-27T08:44:40.890Z,16.00
2019-04-27T08:47:12.522Z,16.00
2019-04-27T08:49:43.181Z,15.90
2019-04-27T08:52:13.795Z,16.00
2019-04-27T08:54:44.884Z,16.20
2019-04-27T08:57:15.701Z,16.20
2019-04-27T08:59:46.516Z,16.10
2019-04-27T09:02:17.128Z,16.40
2019-04-27T09:04:49.330Z,16.40
2019-04-27T09:07:44.444Z,17.20
2019-04-27T09:10:25.605Z,17.10
2019-04-27T09:13:13.927Z,17.40
2019-04-27T09:16:05.605Z,17.60
2019-04-27T09:18:36.223Z,17.50
2019-04-27T09:21:06.868Z,17.40
2019-04-27T09:23:38.890Z,18.30
2019-04-27T09:26:11.177Z,18.10
2019-04-27T09:28:41.967Z,17.80
2019-04-27T09:31:12.789Z,18.00
2019-04-27T09:33:43.978Z,18.20
2019-04-27T09:36:16.490Z,18.60
2019-04-27T09:38:47.826Z,18.20
2019-04-27T09:41:18.803Z,18.10
2019-04-27T09:43:50.101Z,17.90
2019-04-27T09:46:21.780Z,17.50
2019-04-27T09:48:52.715Z,17.30
2019-04-27T09:51:23.566Z,16.80
2019-04-27T09:53:54.182Z,16.40
2019-04-27T09:56:26.130Z,16.20
2019-04-27T09:58:57.305Z,16.10
2019-04-27T10:01:28.823Z,15.90
2019-04-27T10:03:59.675Z,15.20
2019-04-27T10:06:30.411Z,14.10
2019-04-27T10:09:01.021Z,13.40
2019-04-27T10:11:33.263Z,13.10
2019-04-27T10:14:05.822Z,13.10
2019-04-27T10:16:36.777Z,13.20
2019-04-27T10:19:07.798Z,13.50
2019-04-27T10:21:38.695Z,13.40
2019-04-27T10:24:09.409Z,13.60
2019-04-27T10:26:40.057Z,13.20
2019-04-27T10:29:10.943Z,13.30
2019-04-27T10:31:41.825Z,13.40
2019-04-27T10:34:12.793Z,13.40
2019-04-27T10:36:45.929Z,13.50
2019-04-27T10:39:17.145Z,13.60
2019-04-27T10:41:48.194Z,13.60
2019-04-27T10:44:19.003Z,13.30
2019-04-27T10:46:49.899Z,13.20
2019-04-27T10:49:21.295Z,13.10
2019-04-27T10:51:52.109Z,13.10
2019-04-27T10:54:22.932Z,13.10
2019-04-27T10:56:55.772Z,13.00
2019-04-27T10:59:27.669Z,13.20
2019-04-27T11:01:58.543Z,13.30
2019-04-27T11:04:54.211Z,13.30
2019-04-27T11:07:27.557Z,13.40
2019-04-27T11:09:58.135Z,13.40
2019-04-27T11:12:28.988Z,13.30
2019-04-27T11:14:59.845Z,13.60
2019-04-27T11:17:30.507Z,13.70
2019-04-27T11:20:02.731Z,13.80
2019-04-27T11:22:36.191Z,14.00
2019-04-27T11:25:07.475Z,14.00
2019-04-27T11:27:38.163Z,13.90
2019-04-27T11:30:10.522Z,13.80
2019-04-27T11:32:41.436Z,13.50
2019-04-27T11:35:50.425Z,13.50
2019-04-27T11:38:21.131Z,13.50
2019-04-27T11:40:52.616Z,13.20
2019-04-27T11:43:23.297Z,13.00
2019-04-27T11:45:55.781Z,12.90
2019-04-27T11:48:26.384Z,12.60
2019-04-27T11:50:56.954Z,12.60
2019-04-27T11:53:27.708Z,12.50
2019-04-27T11:55:58.435Z,12.40
2019-04-27T11:58:29.247Z,12.50
2019-04-27T12:00:59.960Z,12.80
2019-04-27T12:03:30.915Z,12.70
2019-04-27T12:06:01.568Z,12.90
2019-04-27T12:08:33.583Z,12.80
2019-04-27T12:11:05.837Z,12.80
2019-04-27T12:13:36.547Z,12.90
2019-04-27T12:16:07.578Z,12.90
2019-04-27T12:18:38.234Z,12.90
2019-04-27T12:21:08.864Z,12.80
2019-04-27T12:23:41.396Z,12.80
2019-04-27T12:26:27.943Z,12.80
2019-04-27T12:29:00.005Z,12.90
2019-04-27T12:31:35.791Z,13.00
2019-04-27T12:34:06.531Z,13.30
2019-04-27T12:36:37.433Z,13.40
2019-04-27T12:39:15.658Z,13.40
2019-04-27T12:41:46.439Z,13.20
2019-04-27T12:44:17.350Z,13.30
2019-04-27T12:46:48.350Z,13.60
2019-04-27T12:49:19.024Z,13.90
2019-04-27T12:51:50.223Z,14.00
2019-04-27T12:54:49.221Z,14.00
2019-04-27T12:57:41.995Z,13.90
2019-04-27T13:00:19.064Z,13.90
2019-04-27T13:02:50.295Z,13.90
2019-04-27T13:05:21.217Z,13.80
2019-04-27T13:07:52.417Z,13.50
2019-04-27T13:10:23.408Z,13.30
2019-04-27T13:12:56.067Z,13.30
2019-04-27T13:15:28.292Z,13.60
2019-04-27T13:17:59.210Z,14.00
2019-04-27T13:20:29.939Z,14.10
2019-04-27T13:23:01.808Z,14.10
2019-04-27T13:25:33.962Z,14.40
2019-04-27T13:28:05.648Z,14.40
2019-04-27T13:30:36.633Z,14.30
2019-04-27T13:33:07.263Z,14.40
2019-04-27T13:35:38.412Z,14.30
2019-04-27T13:38:09.310Z,14.10
2019-04-27T13:40:41.474Z,14.20
2019-04-27T13:43:34.044Z,14.20
2019-04-27T13:46:25.897Z,14.20
2019-04-27T13:49:18.089Z,14.30
2019-04-27T13:54:27.214Z,14.00
2019-04-27T13:56:56.407Z,14.00
2019-04-27T13:59:27.344Z,14.20
2019-04-27T14:01:58.085Z,14.40
2019-04-27T14:04:28.691Z,14.60
2019-04-27T14:06:59.408Z,14.50
2019-04-27T14:09:30.718Z,14.50
2019-04-27T14:12:28.393Z,14.50
2019-04-27T14:14:59.085Z,14.40
2019-04-27T14:17:29.967Z,14.30
2019-04-27T14:20:01.269Z,14.30
2019-04-27T14:22:31.903Z,14.30
2019-04-27T14:25:02.615Z,14.20
2019-04-27T14:27:40.678Z,14.30
2019-04-27T14:30:14.013Z,14.20
2019-04-27T14:32:44.885Z,14.10
2019-04-27T14:35:15.582Z,14.10
2019-04-27T14:37:48.369Z,14.10
2019-04-27T14:40:18.890Z,14.10
2019-04-27T14:42:50.526Z,14.10
2019-04-27T14:45:22.272Z,14.20
2019-04-27T14:47:53.359Z,14.00
2019-04-27T14:50:24.033Z,14.10
2019-04-27T14:52:54.639Z,14.20
2019-04-27T14:55:25.280Z,14.20
2019-04-27T14:57:55.953Z,14.00
2019-04-27T15:00:26.792Z,14.10
2019-04-27T15:02:59.056Z,14.00
2019-04-27T15:05:29.892Z,13.80
2019-04-27T15:08:01.638Z,13.50
2019-04-27T15:10:36.095Z,12.90
2019-04-27T15:13:08.362Z,11.90
2019-04-27T15:15:40.386Z,10.70
2019-04-27T15:18:11.425Z,10.40
2019-04-27T15:20:46.509Z,10.00
2019-04-27T15:23:16.933Z,9.80
2019-04-27T15:25:47.554Z,9.70
2019-04-27T15:28:22.766Z,9.30
2019-04-27T15:31:23.610Z,9.00
2019-04-27T15:34:05.569Z,8.90
2019-04-27T15:36:58.481Z,8.70
2019-04-27T15:40:08.250Z,8.80
2019-04-27T15:42:41.577Z,8.70
2019-04-27T15:45:15.983Z,8.50
2019-04-27T15:47:49.244Z,8.50
2019-04-27T15:50:18.289Z,8.40
2019-04-27T15:52:49.134Z,8.30
2019-04-27T15:55:32.343Z,8.70
2019-04-27T15:57:52.744Z,8.70
2019-04-27T16:00:28.981Z,8.80
2019-04-27T16:02:59.657Z,8.50
2019-04-27T16:05:32.319Z,8.70
2019-04-27T16:08:06.282Z,9.00
2019-04-27T16:10:37.277Z,8.60
2019-04-27T16:13:13.423Z,8.50
2019-04-27T16:15:40.892Z,8.90
2019-04-27T16:18:11.584Z,9.10
2019-04-27T16:20:42.732Z,9.00
2019-04-27T16:23:13.612Z,9.20
2019-04-27T16:25:48.537Z,9.20
2019-04-27T16:28:18.395Z,9.10
2019-04-27T16:30:52.843Z,9.20
2019-04-27T16:33:23.601Z,9.30
2019-04-27T16:36:00.334Z,9.30
2019-04-27T16:38:45.487Z,9.30
2019-04-27T16:41:16.237Z,9.20
2019-04-27T16:43:46.812Z,9.10
2019-04-27T16:46:19.094Z,9.10
2019-04-27T16:48:50.531Z,8.90
2019-04-27T16:51:21.522Z,8.90
2019-04-27T16:53:54.583Z,9.00
2019-04-27T16:56:28.527Z,9.00
2019-04-27T16:59:11.507Z,9.10
2019-04-27T17:01:32.066Z,9.20
2019-04-27T17:04:06.402Z,9.10
2019-04-27T17:06:39.192Z,9.10
2019-04-27T17:09:11.466Z,9.20
2019-04-27T17:11:43.963Z,9.20
2019-04-27T17:14:35.223Z,9.30
2019-04-27T17:17:28.303Z,9.20
2019-04-27T17:20:01.201Z,9.10
2019-04-27T17:22:31.990Z,9.20
2019-04-27T17:25:02.635Z,9.20
2019-04-27T17:27:46.056Z,9.20
2019-04-27T17:30:18.881Z,9.00
2019-04-27T17:32:59.141Z,9.00
2019-04-27T17:35:34.680Z,8.90
2019-04-27T17:38:03.713Z,8.90
2019-04-27T17:40:36.023Z,8.80
2019-04-27T17:43:10.240Z,8.80
2019-04-27T17:45:39.803Z,8.50
2019-04-27T17:48:11.217Z,8.40
2019-04-27T17:50:42.936Z,8.40
2019-04-27T17:53:13.785Z,8.20
2019-04-27T17:55:44.713Z,8.20
2019-04-27T17:58:18.008Z,8.20
2019-04-27T18:00:48.334Z,8.10
2019-04-27T18:03:21.108Z,8.00
2019-04-27T18:05:52.639Z,7.90
2019-04-27T18:08:25.237Z,7.80
2019-04-27T18:11:00.313Z,7.90
2019-04-27T18:13:31.004Z,7.90
2019-04-27T18:16:01.830Z,7.80
2019-04-27T18:18:51.708Z,7.80
2019-04-27T18:21:28.274Z,7.60
2019-04-27T18:24:03.230Z,7.60
2019-04-27T18:26:49.579Z,7.40
2019-04-27T18:29:18.457Z,7.10
2019-04-27T18:31:53.375Z,6.90
2019-04-27T18:34:21.725Z,6.90
2019-04-27T18:36:52.884Z,6.70
2019-04-27T18:39:23.626Z,6.80
2019-04-27T18:41:54.517Z,6.70
2019-04-27T18:44:29.297Z,6.60
2019-04-27T18:46:58.844Z,6.50
2019-04-27T18:49:48.961Z,6.50
2019-04-27T18:52:58.106Z,6.60
2019-04-27T18:55:28.994Z,6.70
2019-04-27T18:58:02.079Z,6.70
2019-04-27T19:00:32.557Z,6.80
2019-04-27T19:03:03.192Z,6.60
2019-04-27T19:05:40.082Z,6.50
2019-04-27T19:08:07.841Z,6.40
2019-04-27T19:10:38.843Z,6.40
2019-04-27T19:13:09.706Z,6.30
2019-04-27T19:15:40.998Z,6.30
2019-04-27T19:18:11.803Z,6.40
2019-04-27T19:20:43.203Z,6.40
2019-04-27T19:23:14.088Z,6.50
2019-04-27T19:26:03.736Z,6.20
2019-04-27T19:29:04.840Z,6.20
2019-04-27T19:31:39.408Z,6.40
2019-04-27T19:34:10.127Z,6.30
2019-04-27T19:36:40.899Z,6.20
2019-04-27T19:39:14.023Z,6.20
2019-04-27T19:41:56.875Z,6.20
2019-04-27T19:44:18.759Z,6.30
2019-04-27T19:46:49.915Z,6.30
2019-04-27T19:49:20.839Z,6.20
2019-04-27T19:51:52.495Z,6.30
2019-04-27T19:54:23.524Z,6.20
2019-04-27T19:56:54.323Z,6.20
2019-04-27T19:59:37.974Z,6.20
2019-04-27T20:02:14.550Z,6.30
2019-04-27T20:04:50.504Z,6.30
2019-04-27T20:07:21.447Z,6.30
2019-04-27T20:10:00.280Z,6.20
2019-04-27T20:12:31.467Z,6.20
2019-04-27T20:15:03.476Z,6.10
2019-04-27T20:17:35.614Z,6.00
2019-04-27T20:20:06.900Z,6.00
2019-04-27T20:22:37.842Z,6.00
2019-04-27T20:25:11.075Z,6.00
2019-04-27T20:27:48.730Z,6.10
2019-04-27T20:30:15.223Z,5.90
2019-04-27T20:32:46.435Z,6.00
2019-04-27T20:35:17.069Z,5.90
2019-04-27T20:37:51.704Z,6.00
2019-04-27T20:40:23.940Z,6.10
2019-04-27T20:42:54.789Z,5.90
2019-04-27T20:45:26.474Z,6.00
2019-04-27T20:47:57.175Z,5.80
2019-04-27T20:50:28.010Z,5.90
2019-04-27T20:53:01.259Z,5.80
2019-04-27T20:55:32.306Z,5.80
2019-04-27T20:58:03.290Z,5.90
2019-04-27T21:00:35.367Z,5.80
2019-04-27T21:03:15.818Z,5.90
2019-04-27T21:06:04.785Z,5.90
2019-04-27T21:08:36.778Z,5.90
2019-04-27T21:11:07.413Z,5.80
2019-04-27T21:13:38.082Z,5.80
2019-04-27T21:16:10.733Z,5.80
2019-04-27T21:18:42.848Z,5.90
2019-04-27T21:21:13.604Z,5.90
2019-04-27T21:23:44.547Z,5.90
2019-04-27T21:26:15.280Z,6.00
2019-04-27T21:28:45.997Z,6.00
2019-04-27T21:31:17.088Z,5.90
2019-04-27T21:33:48.069Z,5.80
2019-04-27T21:36:19.337Z,5.80
2019-04-27T21:38:51.249Z,5.80
2019-04-27T21:41:22.710Z,5.90
2019-04-27T21:43:53.468Z,5.90
2019-04-27T21:46:24.162Z,6.00
2019-04-27T21:48:54.944Z,5.90
2019-04-27T21:51:25.590Z,6.00
2019-04-27T21:54:18.028Z,5.90
2019-04-27T21:56:49.215Z,5.80
2019-04-27T21:59:21.108Z,5.70
2019-04-27T22:01:55.375Z,5.70
2019-04-27T22:04:25.531Z,5.70
2019-04-27T22:06:56.305Z,5.60
2019-04-27T22:09:27.043Z,5.50
2019-04-27T22:11:58.260Z,5.40
2019-04-27T22:14:29.252Z,5.20
2019-04-27T22:17:00.835Z,5.20
2019-04-27T22:19:31.999Z,5.20
2019-04-27T22:22:04.586Z,5.20
2019-04-27T22:24:37.759Z,5.30
2019-04-27T22:27:08.423Z,5.20
2019-04-27T22:29:39.394Z,5.30
2019-04-27T22:32:10.224Z,5.30
2019-04-27T22:34:41.654Z,5.40
2019-04-27T22:37:12.309Z,5.30
2019-04-27T22:40:05.149Z,5.50
2019-04-27T22:43:01.605Z,5.40
2019-04-27T22:45:34.186Z,5.40
2019-04-27T22:48:04.967Z,5.30
2019-04-27T22:50:35.647Z,5.30
2019-04-27T22:53:08.443Z,5.30
2019-04-27T22:55:57.516Z,5.40
2019-04-27T22:58:28.287Z,5.30
2019-04-27T23:01:07.689Z,5.40
2019-04-27T23:03:41.341Z,5.40
2019-04-27T23:06:12.016Z,5.40
2019-04-27T23:08:43.056Z,5.40
2019-04-27T23:11:13.654Z,5.50
2019-04-27T23:13:44.505Z,5.40
2019-04-27T23:16:16.892Z,5.40
2019-04-27T23:18:47.529Z,5.30
2019-04-27T23:21:18.124Z,5.30
2019-04-27T23:23:49.234Z,5.30
2019-04-27T23:26:21.086Z,5.20
2019-04-27T23:28:52.085Z,5.40
2019-04-27T23:31:29.431Z,5.20
2019-04-27T23:34:01.754Z,5.30
2019-04-27T23:36:32.583Z,5.30
2019-04-27T23:39:03.478Z,5.40
2019-04-27T23:41:35.388Z,5.30
2019-04-27T23:44:06.343Z,5.30
2019-04-27T23:46:37.170Z,5.30
2019-04-27T23:49:08.021Z,5.40
2019-04-27T23:51:44.862Z,5.50
2019-04-27T23:54:15.509Z,5.50
2019-04-27T23:56:46.321Z,5.50
2019-04-27T23:59:24.607Z,5.40
